KRHI

Rhinelander-Oneida County Airport

Rhinelander, Wisconsin, USA
KRHI 171342Z 1714/1812 05004KT P6SM SCT250 FM180800 03003KT 4SM BR SKC TEMPO 1810/1812 1/2SM FG SCT002
Issued Valid From Valid To
Aug-17 @ 13:42 UTC
(an hour ago)
Aug-17 @ 14:00 UTC
(55 minutes ago)
Aug-18 @ 12:00 UTC
(in 21 hours)
Aug-17 @ 14:00 to Aug-18 @ 08:00
KRHI 171342Z 1714/1812 05004KT P6SM SCT250
Wind Visibility Clouds
50° at 4 knots Greater than 6 miles
  • Scattered at 25,000' AGL
From Aug-18 @ 08:00 to Aug-18 @ 12:00
FM180800 03003KT 4SM BR SKC
Wind Visibility Clouds Conditions
30° at 3 knots 4 miles
  • Clear skies
  • Mist
Temporary Aug-18 @ 10:00 to Aug-18 @ 12:00
TEMPO 1810/1812 1/2SM FG SCT002
Visibility Clouds Conditions
1/2 miles
  • Scattered at 200' AGL
  • Fog
KRHI 171342Z 1714/1812 05004KT P6SM SCT250 FM180800 03003KT 4SM BR SKC TEMPO 1810/1812 1/2SM FG SCT002
Issued Aug-17 @ 13:42 UTC
(an hour ago)
Valid From Aug-17 @ 14:00 UTC
(55 minutes ago)
Valid To Aug-18 @ 12:00 UTC
(in 21 hours)
Aug-17 @ 14:00 - Aug-18 @ 08:00
Wind Visibility
50° at 4 knots Greater than 6 miles
Clouds
  • Scattered at 25,000' AGL
From Aug-18 @ 08:00 - Aug-18 @ 12:00
Wind Visibility
30° at 3 knots 4 miles
Clouds
  • Clear skies
Conditions
  • Mist
Temporary Aug-18 @ 10:00 - Aug-18 @ 12:00
Clouds
  • Scattered at 200' AGL
Conditions
  • Fog